createdAt,value
2022-12-22T00:01:55.300Z,12.30
2022-12-22T00:04:42.135Z,12.40
2022-12-22T00:07:27.403Z,12.40
2022-12-22T00:10:13.144Z,12.40
2022-12-22T00:12:58.360Z,12.40
2022-12-22T00:15:43.780Z,12.50
2022-12-22T00:18:34.315Z,12.50
2022-12-22T00:21:19.821Z,12.50
2022-12-22T00:24:05.339Z,12.60
2022-12-22T00:26:53.105Z,12.60
2022-12-22T00:29:38.919Z,12.60
2022-12-22T00:32:24.914Z,12.70
2022-12-22T00:35:10.528Z,12.70
2022-12-22T00:37:56.734Z,12.70
2022-12-22T00:40:46.075Z,12.70
2022-12-22T00:43:32.661Z,12.80
2022-12-22T00:46:21.076Z,12.80
2022-12-22T00:49:07.506Z,12.80
2022-12-22T00:51:53.218Z,12.80
2022-12-22T00:54:41.321Z,12.90
2022-12-22T00:57:35.090Z,12.90
2022-12-22T01:00:20.478Z,12.90
2022-12-22T01:03:07.998Z,13.00
2022-12-22T01:05:53.686Z,12.90
2022-12-22T01:08:38.871Z,12.90
2022-12-22T01:11:24.711Z,13.00
2022-12-22T01:14:10.105Z,13.00
2022-12-22T01:16:55.595Z,13.00
2022-12-22T01:19:40.788Z,13.00
2022-12-22T01:22:31.731Z,13.00
2022-12-22T01:25:17.012Z,13.00
2022-12-22T01:28:03.090Z,13.00
2022-12-22T01:30:48.611Z,13.10
2022-12-22T01:33:33.881Z,13.10
2022-12-22T01:36:19.176Z,13.10
2022-12-22T01:39:04.482Z,13.10
2022-12-22T01:41:49.748Z,13.10
2022-12-22T01:44:37.034Z,13.10
2022-12-22T01:47:50.081Z,13.30
2022-12-22T01:50:47.292Z,13.20
2022-12-22T01:53:37.615Z,13.20
2022-12-22T01:56:23.866Z,13.20
2022-12-22T01:59:13.462Z,13.20
2022-12-22T02:02:00.675Z,13.20
2022-12-22T02:04:51.952Z,13.20
2022-12-22T02:08:04.979Z,13.20
2022-12-22T02:10:59.012Z,13.20
2022-12-22T02:14:04.725Z,13.20
2022-12-22T02:17:02.372Z,13.20
2022-12-22T02:19:53.879Z,13.20
2022-12-22T02:22:42.250Z,13.20
2022-12-22T02:25:44.137Z,13.20
2022-12-22T02:28:31.792Z,13.20
2022-12-22T02:31:17.193Z,13.20
2022-12-22T02:34:02.669Z,13.20
2022-12-22T02:37:03.886Z,13.30
2022-12-22T02:40:05.483Z,13.20
2022-12-22T02:42:54.874Z,13.20
2022-12-22T02:46:05.268Z,13.30
2022-12-22T02:48:59.702Z,13.30
2022-12-22T02:51:48.293Z,13.30
2022-12-22T02:54:36.530Z,13.30
2022-12-22T02:57:25.754Z,13.30
2022-12-22T03:00:13.601Z,13.30
2022-12-22T03:02:59.500Z,13.30
2022-12-22T03:05:44.765Z,13.30
2022-12-22T03:08:30.209Z,13.30
2022-12-22T03:11:15.455Z,13.30
2022-12-22T03:14:00.923Z,13.30
2022-12-22T03:16:46.037Z,13.30
2022-12-22T03:19:31.706Z,13.30
2022-12-22T03:22:16.800Z,13.40
2022-12-22T03:25:02.478Z,13.30
2022-12-22T03:27:29.455Z,13.40
2022-12-22T03:29:56.211Z,13.30
2022-12-22T03:32:23.235Z,13.30
2022-12-22T03:34:49.919Z,13.30
2022-12-22T03:37:16.814Z,13.30
2022-12-22T03:39:43.568Z,13.30
2022-12-22T03:42:32.111Z,13.40
2022-12-22T03:45:17.500Z,13.40
2022-12-22T03:47:44.488Z,13.40
2022-12-22T03:50:11.417Z,13.40
2022-12-22T03:52:38.614Z,13.40
2022-12-22T03:55:05.827Z,13.40
2022-12-22T03:57:32.641Z,13.40
2022-12-22T03:59:59.488Z,13.40
2022-12-22T04:02:26.718Z,13.40
2022-12-22T04:04:53.581Z,13.40
2022-12-22T04:07:20.404Z,13.40
2022-12-22T04:10:05.689Z,13.40
2022-12-22T04:12:50.974Z,13.40
2022-12-22T04:15:18.042Z,13.40
2022-12-22T04:17:44.693Z,13.40
2022-12-22T04:20:11.984Z,13.40
2022-12-22T04:22:38.942Z,13.40
2022-12-22T04:25:06.182Z,13.30
2022-12-22T04:27:34.091Z,13.30
2022-12-22T04:30:00.801Z,13.30
2022-12-22T04:32:27.486Z,13.30
2022-12-22T04:34:54.680Z,13.30
2022-12-22T04:37:21.439Z,13.30
2022-12-22T04:39:48.173Z,13.30
2022-12-22T04:42:15.183Z,13.30
2022-12-22T04:44:41.908Z,13.40
2022-12-22T04:47:08.599Z,13.40
2022-12-22T04:49:35.787Z,13.30
2022-12-22T04:52:02.543Z,13.40
2022-12-22T04:54:29.214Z,13.40
2022-12-22T04:56:56.277Z,13.40
2022-12-22T04:59:23.026Z,13.40
2022-12-22T05:01:50.005Z,13.40
2022-12-22T05:04:23.355Z,13.40
2022-12-22T05:06:50.562Z,13.50
2022-12-22T05:09:17.290Z,13.50
2022-12-22T05:11:44.041Z,13.50
2022-12-22T05:14:10.754Z,13.50
2022-12-22T05:16:37.649Z,13.50
2022-12-22T05:19:04.468Z,13.50
2022-12-22T05:21:31.122Z,13.50
2022-12-22T05:23:58.924Z,13.60
2022-12-22T05:26:25.606Z,13.60
2022-12-22T05:28:52.694Z,13.60
2022-12-22T05:31:24.392Z,13.70
2022-12-22T05:33:51.823Z,13.60
2022-12-22T05:36:19.426Z,13.70
2022-12-22T05:38:46.318Z,13.60
2022-12-22T05:41:13.317Z,13.70
2022-12-22T05:43:41.316Z,13.70
2022-12-22T05:46:10.208Z,13.70
2022-12-22T05:48:39.336Z,13.70
2022-12-22T05:51:08.382Z,13.70
2022-12-22T05:53:35.945Z,13.70
2022-12-22T05:56:02.668Z,13.70
2022-12-22T05:58:29.535Z,13.70
2022-12-22T06:00:58.354Z,13.80
2022-12-22T06:03:26.525Z,13.80
2022-12-22T06:05:53.684Z,13.70
2022-12-22T06:08:20.916Z,13.80
2022-12-22T06:10:48.300Z,13.90
2022-12-22T06:13:15.025Z,13.80
2022-12-22T06:15:42.119Z,13.80
2022-12-22T06:18:08.956Z,13.80
2022-12-22T06:20:35.965Z,13.80
2022-12-22T06:23:03.233Z,13.80
2022-12-22T06:25:29.996Z,13.80
2022-12-22T06:27:56.907Z,13.80
2022-12-22T06:30:31.007Z,13.80
2022-12-22T06:33:01.068Z,13.80
2022-12-22T06:35:28.077Z,13.80
2022-12-22T06:37:54.703Z,13.80
2022-12-22T06:40:21.863Z,13.80
2022-12-22T06:43:09.127Z,13.80
2022-12-22T06:45:42.166Z,13.90
2022-12-22T06:48:10.139Z,13.90
2022-12-22T06:50:36.841Z,13.90
2022-12-22T06:53:04.752Z,13.90
2022-12-22T06:55:31.481Z,13.90
2022-12-22T06:57:58.543Z,13.90
2022-12-22T07:00:25.714Z,13.90
2022-12-22T07:02:53.007Z,13.90
2022-12-22T07:05:20.095Z,13.90
2022-12-22T07:07:47.161Z,13.90
2022-12-22T07:10:14.088Z,13.90
2022-12-22T07:12:41.260Z,13.80
2022-12-22T07:15:08.924Z,13.80
2022-12-22T07:17:35.808Z,13.80
2022-12-22T07:20:02.470Z,13.80
2022-12-22T07:22:30.725Z,13.80
2022-12-22T07:24:58.747Z,13.80
2022-12-22T07:27:25.696Z,13.80
2022-12-22T07:29:52.529Z,13.80
2022-12-22T07:32:19.223Z,13.80
2022-12-22T07:34:46.112Z,13.80
2022-12-22T07:37:14.016Z,13.80
2022-12-22T07:39:40.859Z,13.80
2022-12-22T07:42:26.413Z,13.70
2022-12-22T07:44:53.121Z,13.70
2022-12-22T07:47:20.072Z,13.80
2022-12-22T07:50:05.188Z,13.70
2022-12-22T07:52:31.953Z,13.80
2022-12-22T07:54:58.668Z,13.70
2022-12-22T07:57:26.410Z,13.70
2022-12-22T07:59:53.801Z,13.70
2022-12-22T08:02:20.600Z,13.70
2022-12-22T08:04:47.528Z,13.70
2022-12-22T08:07:14.223Z,13.70
2022-12-22T08:09:40.902Z,13.70
2022-12-22T08:12:07.698Z,13.70
2022-12-22T08:14:34.520Z,13.70
2022-12-22T08:17:01.238Z,13.60
2022-12-22T08:19:28.070Z,13.60
2022-12-22T08:21:54.728Z,13.60
2022-12-22T08:24:22.119Z,13.70
2022-12-22T08:26:53.242Z,13.70
2022-12-22T08:29:25.395Z,13.60
2022-12-22T08:31:54.108Z,13.60
2022-12-22T08:34:21.369Z,13.60
2022-12-22T08:36:51.440Z,13.60
2022-12-22T08:39:19.728Z,13.60
2022-12-22T08:41:52.630Z,13.60
2022-12-22T08:44:28.241Z,13.60
2022-12-22T08:46:57.071Z,13.60
2022-12-22T08:49:24.401Z,13.60
2022-12-22T08:51:51.446Z,13.60
2022-12-22T08:54:18.382Z,13.60
2022-12-22T08:56:45.769Z,13.60
2022-12-22T08:59:13.080Z,13.60
2022-12-22T09:01:44.221Z,13.60
2022-12-22T09:04:15.703Z,13.60
2022-12-22T09:06:42.453Z,13.60
2022-12-22T09:09:12.152Z,13.70
2022-12-22T09:11:40.262Z,13.70
2022-12-22T09:14:08.815Z,13.70
2022-12-22T09:16:36.320Z,13.70
2022-12-22T09:19:03.715Z,13.70
2022-12-22T09:21:30.814Z,13.70
2022-12-22T09:23:58.419Z,13.80
2022-12-22T09:26:27.557Z,13.80
2022-12-22T09:28:55.250Z,13.80
2022-12-22T09:31:24.375Z,13.80
2022-12-22T09:33:51.509Z,13.80
2022-12-22T09:36:21.146Z,13.80
2022-12-22T09:38:47.914Z,13.80
2022-12-22T09:41:31.826Z,13.90
2022-12-22T09:44:10.476Z,13.90
2022-12-22T09:46:38.541Z,13.90
2022-12-22T09:49:12.350Z,13.90
2022-12-22T09:51:46.446Z,13.90
2022-12-22T09:54:14.512Z,14.00
2022-12-22T09:56:41.468Z,14.00
2022-12-22T09:59:14.161Z,14.00
2022-12-22T10:02:00.309Z,14.00
2022-12-22T10:04:41.311Z,14.00
2022-12-22T10:07:21.697Z,14.00
2022-12-22T10:09:51.206Z,14.00
2022-12-22T10:12:22.950Z,14.00
2022-12-22T10:14:52.278Z,14.00
2022-12-22T10:17:34.158Z,14.00
2022-12-22T10:20:19.391Z,14.00
2022-12-22T10:22:58.651Z,14.00
2022-12-22T10:25:52.516Z,14.00
2022-12-22T10:28:26.995Z,14.00
2022-12-22T10:31:12.685Z,14.00
2022-12-22T10:33:46.423Z,14.00
2022-12-22T10:36:17.999Z,14.00
2022-12-22T10:39:19.823Z,14.00
2022-12-22T10:41:49.151Z,14.00
2022-12-22T10:44:15.804Z,14.00
2022-12-22T10:46:58.309Z,14.00
2022-12-22T10:52:30.977Z,14.00
2022-12-22T10:55:26.824Z,13.90
2022-12-22T10:58:09.974Z,13.90
2022-12-22T11:00:41.090Z,13.90
2022-12-22T11:03:12.104Z,13.90
2022-12-22T11:05:39.393Z,13.90
2022-12-22T11:08:18.902Z,13.90
2022-12-22T11:11:01.572Z,13.90
2022-12-22T11:13:42.387Z,13.90
2022-12-22T11:16:40.272Z,14.00
2022-12-22T11:19:40.934Z,14.00
2022-12-22T11:22:39.223Z,14.00
2022-12-22T11:25:22.943Z,14.00
2022-12-22T11:28:11.698Z,14.00
2022-12-22T11:30:51.280Z,14.00
2022-12-22T11:33:49.891Z,14.00
2022-12-22T11:36:50.185Z,14.00
2022-12-22T11:39:28.552Z,14.00
2022-12-22T11:41:59.233Z,14.00
2022-12-22T11:44:38.475Z,14.00
2022-12-22T11:47:36.775Z,14.00
2022-12-22T11:50:58.993Z,13.90
2022-12-22T11:53:07.125Z,13.90
2022-12-22T11:55:39.474Z,14.00
2022-12-22T11:58:30.850Z,13.90
2022-12-22T12:01:31.335Z,13.90
2022-12-22T12:04:46.954Z,13.90
2022-12-22T12:07:25.573Z,13.90
2022-12-22T12:10:07.136Z,13.90
2022-12-22T12:12:56.125Z,13.80
2022-12-22T12:15:38.872Z,13.80
2022-12-22T12:18:42.674Z,13.80
2022-12-22T12:21:12.273Z,13.90
2022-12-22T12:24:03.744Z,13.90
2022-12-22T12:26:35.022Z,13.90
2022-12-22T12:29:27.238Z,13.90
2022-12-22T12:32:01.342Z,13.90
2022-12-22T12:34:33.734Z,13.90
2022-12-22T12:37:07.685Z,14.00
2022-12-22T12:40:05.500Z,13.90
2022-12-22T12:42:41.991Z,13.90
2022-12-22T12:45:57.718Z,13.90
2022-12-22T12:48:24.441Z,13.90
2022-12-22T12:50:52.642Z,13.90
2022-12-22T12:53:24.491Z,13.90
2022-12-22T12:55:54.578Z,13.90
2022-12-22T12:58:37.821Z,13.90
2022-12-22T13:01:13.365Z,13.90
2022-12-22T13:06:51.082Z,13.90
2022-12-22T13:09:49.075Z,13.80
2022-12-22T13:12:39.063Z,13.80
2022-12-22T13:15:29.687Z,13.80
2022-12-22T13:17:57.442Z,13.70
2022-12-22T13:20:36.497Z,13.70
2022-12-22T13:23:11.054Z,13.70
2022-12-22T13:25:45.846Z,13.70
2022-12-22T13:28:16.932Z,13.60
2022-12-22T13:30:59.306Z,13.60
2022-12-22T13:33:30.897Z,13.60
2022-12-22T13:35:59.555Z,13.60
2022-12-22T13:38:35.678Z,13.50
2022-12-22T13:41:20.102Z,13.50
2022-12-22T13:44:04.350Z,13.50
2022-12-22T13:46:34.937Z,13.50
2022-12-22T13:49:04.733Z,13.50
2022-12-22T13:51:36.292Z,13.50
2022-12-22T13:54:18.735Z,13.50
2022-12-22T13:56:54.042Z,13.50
2022-12-22T13:59:35.281Z,13.50
2022-12-22T14:02:16.653Z,13.50
2022-12-22T14:05:08.705Z,13.50
2022-12-22T14:07:35.728Z,13.40
2022-12-22T14:10:02.736Z,13.50
2022-12-22T14:12:40.599Z,13.50
2022-12-22T14:15:17.309Z,13.50
2022-12-22T14:17:52.155Z,13.50
2022-12-22T14:20:28.969Z,13.50
2022-12-22T14:23:01.928Z,13.50
2022-12-22T14:25:41.331Z,13.60
2022-12-22T14:28:39.518Z,13.60
2022-12-22T14:31:07.421Z,13.60
2022-12-22T14:33:35.241Z,13.60
2022-12-22T14:36:20.725Z,13.60
2022-12-22T14:38:52.115Z,13.60
2022-12-22T14:41:39.721Z,13.60
2022-12-22T14:44:13.608Z,13.60
2022-12-22T14:46:41.438Z,13.60
2022-12-22T14:49:17.714Z,13.60
2022-12-22T14:51:59.100Z,13.60
2022-12-22T14:54:28.215Z,13.50
2022-12-22T14:57:02.426Z,13.50
2022-12-22T14:59:29.374Z,13.50
2022-12-22T15:02:01.474Z,13.50
2022-12-22T15:04:29.156Z,13.50
2022-12-22T15:07:30.080Z,13.50
2022-12-22T15:10:15.054Z,13.50
2022-12-22T15:12:44.493Z,13.40
2022-12-22T15:15:22.137Z,13.40
2022-12-22T15:17:52.984Z,13.40
2022-12-22T15:20:23.065Z,13.30
2022-12-22T15:22:50.086Z,13.30
2022-12-22T15:25:20.197Z,13.30
2022-12-22T15:27:47.030Z,13.30
2022-12-22T15:30:18.282Z,13.20
2022-12-22T15:32:45.669Z,13.20
2022-12-22T15:35:18.370Z,13.10
2022-12-22T15:37:45.305Z,13.10
2022-12-22T15:40:17.008Z,13.10
2022-12-22T15:42:44.076Z,13.00
2022-12-22T15:45:11.385Z,13.00
2022-12-22T15:47:38.804Z,13.00
2022-12-22T15:50:08.934Z,12.90
2022-12-22T15:52:35.691Z,12.90
2022-12-22T15:55:02.515Z,12.90
2022-12-22T15:57:29.924Z,12.90
2022-12-22T15:59:56.684Z,12.80
2022-12-22T16:02:23.651Z,12.80
2022-12-22T16:04:50.455Z,12.80
2022-12-22T16:07:17.338Z,12.80
2022-12-22T16:09:46.074Z,12.80
2022-12-22T16:12:18.397Z,12.70
2022-12-22T16:14:50.695Z,12.70
2022-12-22T16:17:21.029Z,12.70
2022-12-22T16:19:47.747Z,12.70
2022-12-22T16:22:17.506Z,12.70
2022-12-22T16:24:46.440Z,12.70
2022-12-22T16:27:13.894Z,12.70
2022-12-22T16:29:48.555Z,12.70
2022-12-22T16:32:28.497Z,12.70
2022-12-22T16:35:14.907Z,12.70
2022-12-22T16:37:42.096Z,12.70
2022-12-22T16:40:09.968Z,12.70
2022-12-22T16:45:28.640Z,12.70
2022-12-22T16:47:59.535Z,12.70
2022-12-22T16:50:32.739Z,12.70
2022-12-22T16:53:05.387Z,12.70
2022-12-22T16:55:33.583Z,12.60
2022-12-22T16:58:00.305Z,12.60
2022-12-22T17:00:30.267Z,12.60
2022-12-22T17:03:19.067Z,12.60
2022-12-22T17:05:53.087Z,12.60
2022-12-22T17:08:27.075Z,12.60
2022-12-22T17:10:56.546Z,12.60
2022-12-22T17:13:23.714Z,12.50
2022-12-22T17:15:50.765Z,12.50
2022-12-22T17:18:20.314Z,12.50
2022-12-22T17:20:50.313Z,12.50
2022-12-22T17:23:28.695Z,12.50
2022-12-22T17:25:55.834Z,12.50
2022-12-22T17:28:22.633Z,12.50
2022-12-22T17:30:49.520Z,12.70
2022-12-22T17:33:17.207Z,12.60
2022-12-22T17:35:45.579Z,12.60
2022-12-22T17:38:14.394Z,12.60
2022-12-22T17:40:42.427Z,12.60
2022-12-22T17:43:17.226Z,12.60
2022-12-22T17:45:46.011Z,12.60
2022-12-22T17:48:17.455Z,12.60
2022-12-22T17:50:49.439Z,12.60
2022-12-22T17:53:19.968Z,12.60
2022-12-22T17:58:35.162Z,12.60
2022-12-22T18:01:01.921Z,12.70
2022-12-22T18:03:28.753Z,12.60
2022-12-22T18:05:55.575Z,12.60
2022-12-22T18:08:22.625Z,12.60
2022-12-22T18:10:49.810Z,12.70
2022-12-22T18:13:26.375Z,12.60
2022-12-22T18:15:54.959Z,12.60
2022-12-22T18:18:21.984Z,12.60
2022-12-22T18:21:06.191Z,12.60
2022-12-22T18:23:36.540Z,12.60
2022-12-22T18:26:05.997Z,12.70
2022-12-22T18:28:32.733Z,12.70
2022-12-22T18:30:59.889Z,12.70
2022-12-22T18:33:26.579Z,12.70
2022-12-22T18:35:53.362Z,12.70
2022-12-22T18:38:28.225Z,12.70
2022-12-22T18:40:55.505Z,12.70
2022-12-22T18:43:22.646Z,12.70
2022-12-22T18:45:49.676Z,12.80
2022-12-22T18:48:16.567Z,12.70
2022-12-22T18:50:43.662Z,12.70
2022-12-22T18:53:43.008Z,12.70
2022-12-22T18:56:12.267Z,12.70
2022-12-22T18:58:40.231Z,12.70
2022-12-22T19:01:11.555Z,12.70
2022-12-22T19:03:38.569Z,12.80
2022-12-22T19:06:05.496Z,12.80
2022-12-22T19:08:32.200Z,12.80
2022-12-22T19:11:03.657Z,12.80
2022-12-22T19:13:35.305Z,12.80
2022-12-22T19:16:02.343Z,12.80
2022-12-22T19:18:29.243Z,12.80
2022-12-22T19:20:56.290Z,12.80
2022-12-22T19:23:24.749Z,12.80
2022-12-22T19:26:00.930Z,12.80
2022-12-22T19:28:37.475Z,12.80
2022-12-22T19:31:06.607Z,12.80
2022-12-22T19:33:43.036Z,12.90
2022-12-22T19:36:28.234Z,12.90
2022-12-22T19:39:03.316Z,12.90
2022-12-22T19:41:34.217Z,12.90
2022-12-22T19:44:01.135Z,12.90
2022-12-22T19:46:32.321Z,12.90
2022-12-22T19:48:59.607Z,12.90
2022-12-22T19:51:26.445Z,12.90
2022-12-22T19:53:54.234Z,13.00
2022-12-22T19:56:29.809Z,13.00
2022-12-22T19:58:58.429Z,12.90
2022-12-22T20:01:25.318Z,12.90
2022-12-22T20:03:52.857Z,13.00
2022-12-22T20:06:19.830Z,13.00
2022-12-22T20:08:46.827Z,13.00
2022-12-22T20:11:19.146Z,13.00
2022-12-22T20:13:47.323Z,13.00
2022-12-22T20:16:15.737Z,13.00
2022-12-22T20:18:43.866Z,13.00
2022-12-22T20:21:21.548Z,13.00
2022-12-22T20:23:48.692Z,13.00
2022-12-22T20:26:20.077Z,13.10
2022-12-22T20:28:47.408Z,13.10
2022-12-22T20:31:17.011Z,13.00
2022-12-22T20:33:43.961Z,13.00
2022-12-22T20:36:22.082Z,13.00
2022-12-22T20:38:52.036Z,13.00
2022-12-22T20:41:19.447Z,13.00
2022-12-22T20:43:46.290Z,13.10
2022-12-22T20:46:18.188Z,13.10
2022-12-22T20:48:49.097Z,13.10
2022-12-22T20:51:19.016Z,13.10
2022-12-22T20:53:46.848Z,13.10
2022-12-22T20:56:37.563Z,13.10
2022-12-22T20:59:14.677Z,13.10
2022-12-22T21:01:41.706Z,13.20
2022-12-22T21:04:08.538Z,13.20
2022-12-22T21:06:38.228Z,13.20
2022-12-22T21:09:05.111Z,13.20
2022-12-22T21:11:32.078Z,13.20
2022-12-22T21:13:59.402Z,13.20
2022-12-22T21:16:28.646Z,13.20
2022-12-22T21:18:55.924Z,13.20
2022-12-22T21:21:22.925Z,13.20
2022-12-22T21:23:49.978Z,13.20
2022-12-22T21:26:32.474Z,13.30
2022-12-22T21:29:01.483Z,13.30
2022-12-22T21:31:29.562Z,13.30
2022-12-22T21:33:56.513Z,13.30
2022-12-22T21:36:29.724Z,13.30
2022-12-22T21:39:01.532Z,13.30
2022-12-22T21:41:47.790Z,13.30
2022-12-22T21:44:15.047Z,13.30
2022-12-22T21:46:46.605Z,13.30
2022-12-22T21:49:22.917Z,13.30
2022-12-22T21:51:51.365Z,13.30
2022-12-22T21:54:20.124Z,13.30
2022-12-22T21:56:47.725Z,13.30
2022-12-22T21:59:14.727Z,13.30
2022-12-22T22:01:42.459Z,13.30
2022-12-22T22:04:10.035Z,13.30
2022-12-22T22:06:37.837Z,13.30
2022-12-22T22:09:05.857Z,13.30
2022-12-22T22:11:33.009Z,13.30
2022-12-22T22:14:00.277Z,13.30
2022-12-22T22:16:27.110Z,13.30
2022-12-22T22:18:54.027Z,13.30
2022-12-22T22:21:20.656Z,13.30
2022-12-22T22:23:47.518Z,13.30
2022-12-22T22:26:14.228Z,13.30
2022-12-22T22:28:41.109Z,13.30
2022-12-22T22:31:11.826Z,13.30
2022-12-22T22:33:38.975Z,13.30
2022-12-22T22:36:08.925Z,13.30
2022-12-22T22:38:36.000Z,13.30
2022-12-22T22:41:02.911Z,13.40
2022-12-22T22:43:29.750Z,13.40
2022-12-22T22:45:56.704Z,13.30
2022-12-22T22:48:23.792Z,13.30
2022-12-22T22:50:51.250Z,13.30
2022-12-22T22:53:18.039Z,13.30
2022-12-22T22:55:44.789Z,13.30
2022-12-22T22:58:11.717Z,13.30
2022-12-22T23:00:39.567Z,13.30
2022-12-22T23:03:06.416Z,13.30
2022-12-22T23:05:33.637Z,13.30
2022-12-22T23:08:00.660Z,13.30
2022-12-22T23:10:27.526Z,13.30
2022-12-22T23:12:55.014Z,13.30
2022-12-22T23:15:21.912Z,13.30
2022-12-22T23:17:51.608Z,13.30
2022-12-22T23:20:19.299Z,13.30
2022-12-22T23:22:45.947Z,13.30
2022-12-22T23:25:12.708Z,13.30
2022-12-22T23:27:39.533Z,13.30
2022-12-22T23:30:07.250Z,13.30
2022-12-22T23:32:34.008Z,13.30
2022-12-22T23:35:00.699Z,13.30
2022-12-22T23:37:27.642Z,13.30
2022-12-22T23:39:54.592Z,13.40
2022-12-22T23:42:22.703Z,13.30
2022-12-22T23:44:49.409Z,13.30
2022-12-22T23:47:16.196Z,13.30
2022-12-22T23:49:42.986Z,13.30
2022-12-22T23:52:09.777Z,13.30
2022-12-22T23:54:36.477Z,13.30
2022-12-22T23:57:03.624Z,13.30
2022-12-22T23:59:30.336Z,13.30
